Time;durP1;ratioP1;P1;durP2;ratioP2;P2;SDS_P1;SDS_P2;PMS_P1;PMS_P2;Temp;Humidity;BMP_temperature;BMP_pressure;BME280_temperature;BME280_humidity;BME280_pressure;Samples;Min_cycle;Max_cycle;Signal;HPM_P1;HPM_P2
2023/05/06 00:01:24;;;;;;;6.60;5.90;;;;;;;7.92;88.05;96455.09;5072736;28;20072;-69
2023/05/06 00:03:55;;;;;;;8.50;6.88;;;;;;;7.96;88.71;96446.31;5072702;28;20413;-68
2023/05/06 00:06:22;;;;;;;8.50;6.63;;;;;;;7.96;88.54;96456.75;5072658;28;20476;-66
2023/05/06 00:08:49;;;;;;;10.27;6.47;;;;;;;7.97;88.81;96453.22;5072620;28;20056;-69
2023/05/06 00:11:17;;;;;;;9.10;5.28;;;;;;;8.06;88.67;96454.72;5072604;28;20078;-66
2023/05/06 00:13:44;;;;;;;8.20;5.82;;;;;;;8.00;88.64;96454.06;5072597;28;20044;-68
2023/05/06 00:16:12;;;;;;;10.13;7.00;;;;;;;8.04;89.44;96453.88;5072606;28;20045;-68
2023/05/06 00:18:40;;;;;;;12.18;6.32;;;;;;;8.12;89.35;96450.22;5072657;28;20041;-66
2023/05/06 00:21:10;;;;;;;8.68;6.32;;;;;;;8.18;89.80;96447.41;5072414;28;20131;-68
2023/05/06 00:23:37;;;;;;;9.30;6.33;;;;;;;8.22;89.39;96447.28;5075119;28;20044;-67
2023/05/06 00:26:05;;;;;;;6.65;5.85;;;;;;;8.28;88.87;96453.22;5076251;28;20090;-67
2023/05/06 00:28:33;;;;;;;7.63;6.53;;;;;;;8.22;88.93;96452.50;5076237;28;20048;-68
2023/05/06 00:31:01;;;;;;;11.55;7.35;;;;;;;8.23;89.66;96445.53;5076357;28;20048;-66
2023/05/06 00:33:28;;;;;;;12.80;6.25;;;;;;;8.26;89.61;96449.78;5076219;28;20045;-68
2023/05/06 00:35:55;;;;;;;9.43;7.35;;;;;;;8.20;89.71;96441.28;5076098;28;20044;-70
2023/05/06 00:38:24;;;;;;;12.48;7.03;;;;;;;8.25;90.38;96445.50;5076075;28;20135;-69
2023/05/06 00:40:52;;;;;;;10.50;7.32;;;;;;;8.31;90.01;96440.94;5076092;28;20076;-68
2023/05/06 00:43:19;;;;;;;9.00;6.63;;;;;;;8.31;89.39;96440.09;5075735;28;20074;-66
2023/05/06 00:45:47;;;;;;;7.93;6.78;;;;;;;8.29;89.17;96439.28;5075961;28;20076;-66
2023/05/06 00:48:15;;;;;;;9.65;6.47;;;;;;;8.31;89.51;96435.72;5075876;28;20432;-69
2023/05/06 00:50:42;;;;;;;9.13;6.18;;;;;;;8.33;88.99;96438.28;5075821;28;20136;-69
2023/05/06 00:53:10;;;;;;;7.45;5.85;;;;;;;8.31;88.76;96440.09;5075775;28;20441;-66
2023/05/06 00:55:40;;;;;;;12.35;6.40;;;;;;;8.34;88.60;96435.63;5075816;28;20405;-68
2023/05/06 00:58:09;;;;;;;13.38;7.18;;;;;;;8.29;89.14;96429.72;5075549;28;20095;-69
2023/05/06 01:00:36;;;;;;;8.93;6.90;;;;;;;8.31;89.72;96434.88;5075661;28;20055;-66
2023/05/06 01:03:03;;;;;;;10.55;6.88;;;;;;;8.35;89.79;96431.28;5075636;28;20383;-66
2023/05/06 01:05:41;;;;;;;9.45;6.35;;;;;;;8.37;88.61;96433.84;5075501;28;20132;-69
2023/05/06 01:08:20;;;;;;;17.20;7.00;;;;;;;8.32;88.80;96432.25;5075470;28;20052;-69
2023/05/06 01:10:55;;;;;;;12.35;7.38;;;;;;;8.39;89.32;96424.19;5075480;28;20045;-66
2023/05/06 01:13:30;;;;;;;11.20;7.63;;;;;;;8.38;90.01;96420.75;5075441;28;20049;-69
2023/05/06 01:16:01;;;;;;;8.93;7.30;;;;;;;8.42;89.58;96424.09;5075337;28;20090;-67
2023/05/06 01:18:31;;;;;;;;;;;;;;;8.45;89.71;96419.66;5075843;28;20110;-69
2023/05/06 01:21:00;;;;;;;9.98;6.72;;;;;;;8.44;89.22;96431.00;5075321;28;19924;-66
2023/05/06 01:23:30;;;;;;;9.55;6.25;;;;;;;8.40;89.08;96425.94;5075323;28;20098;-68
2023/05/06 01:25:57;;;;;;;12.45;6.72;;;;;;;8.40;89.46;96420.72;5075211;28;20056;-66
2023/05/06 01:28:24;;;;;;;12.02;6.60;;;;;;;8.41;89.09;96417.19;5075078;28;20414;-68
2023/05/06 01:30:57;;;;;;;11.43;7.28;;;;;;;8.39;89.27;96413.78;5075079;28;20486;-67
2023/05/06 01:33:34;;;;;;;12.32;6.30;;;;;;;8.38;89.55;96417.28;5075063;28;20123;-69
2023/05/06 01:36:13;;;;;;;10.93;6.75;;;;;;;8.33;88.77;96412.22;5075104;28;20044;-66
2023/05/06 01:38:49;;;;;;;8.68;6.60;;;;;;;8.30;89.56;96409.72;5075066;28;20044;-66
2023/05/06 01:41:18;;;;;;;9.07;6.97;;;;;;;8.22;89.39;96409.97;5074900;28;20084;-69
2023/05/06 01:43:48;;;;;;;13.77;6.90;;;;;;;8.20;89.28;96404.81;5074613;28;20053;-66
2023/05/06 01:46:19;;;;;;;8.67;6.53;;;;;;;8.22;89.02;96412.56;5074918;28;20383;-69
2023/05/06 01:48:49;;;;;;;13.30;8.85;;;;;;;8.19;89.60;96405.69;5074728;28;20098;-69
2023/05/06 01:51:16;;;;;;;17.10;8.98;;;;;;;8.35;90.12;96407.81;5074787;28;20131;-66
2023/05/06 01:53:45;;;;;;;14.02;8.50;;;;;;;8.40;89.79;96405.91;5074624;28;20052;-70
2023/05/06 01:56:13;;;;;;;12.20;8.50;;;;;;;8.45;89.99;96408.38;5074629;28;20044;-68
2023/05/06 01:58:40;;;;;;;10.68;7.20;;;;;;;8.50;90.18;96401.28;5074614;28;20463;-68
2023/05/06 02:01:08;;;;;;;13.45;8.30;;;;;;;8.53;90.06;96401.19;5074589;28;20045;-67
2023/05/06 02:03:36;;;;;;;15.27;7.88;;;;;;;8.55;89.50;96409.81;5074490;28;20472;-68
2023/05/06 02:06:03;;;;;;;10.07;7.63;;;;;;;8.59;89.26;96405.38;5074478;28;20048;-67
2023/05/06 02:08:30;;;;;;;13.95;7.13;;;;;;;8.65;88.74;96404.31;5074293;28;20486;-68
2023/05/06 02:10:59;;;;;;;8.98;6.90;;;;;;;8.63;89.19;96398.28;5074406;28;20044;-66
2023/05/06 02:13:27;;;;;;;12.18;7.95;;;;;;;8.67;88.76;96405.97;5074309;28;20095;-69
2023/05/06 02:15:55;;;;;;;10.05;7.47;;;;;;;8.71;88.84;96402.38;5074281;28;20063;-68
2023/05/06 02:18:22;;;;;;;8.88;6.93;;;;;;;8.74;88.35;96392.72;5074247;28;20114;-69
2023/05/06 02:20:49;;;;;;;12.80;7.60;;;;;;;8.68;87.37;96401.63;5074060;28;20562;-69
2023/05/06 02:23:16;;;;;;;13.98;8.15;;;;;;;8.64;87.35;96400.84;5074113;28;20079;-68
2023/05/06 02:25:49;;;;;;;15.35;7.93;;;;;;;8.65;88.01;96402.56;5074090;28;20045;-67
2023/05/06 02:28:18;;;;;;;12.20;8.00;;;;;;;8.72;87.56;96409.28;5074017;28;20505;-67
2023/05/06 02:30:47;;;;;;;11.05;7.10;;;;;;;8.69;87.30;96412.00;5074115;28;20071;-68
2023/05/06 02:33:15;;;;;;;9.00;7.15;;;;;;;8.66;86.85;96411.22;5074067;28;20044;-67
2023/05/06 02:35:43;;;;;;;11.02;7.30;;;;;;;8.63;86.84;96412.19;5073956;28;20516;-69
2023/05/06 02:38:10;;;;;;;12.40;7.07;;;;;;;8.63;86.92;96403.50;5073889;28;20045;-67
2023/05/06 02:40:40;;;;;;;12.07;7.20;;;;;;;8.62;87.15;96417.44;5073747;28;20131;-67
2023/05/06 02:43:07;;;;;;;11.05;6.47;;;;;;;8.57;87.70;96414.97;5073423;28;20054;-66
2023/05/06 02:45:36;;;;;;;8.88;7.43;;;;;;;8.50;87.76;96413.44;5073223;28;20062;-68
2023/05/06 02:48:04;;;;;;;10.88;6.50;;;;;;;8.43;87.16;96416.25;5073662;28;20418;-69
2023/05/06 02:50:32;;;;;;;8.80;7.05;;;;;;;8.36;87.21;96417.34;5073562;28;20052;-67
2023/05/06 02:53:00;;;;;;;8.63;6.40;;;;;;;8.39;88.06;96409.44;5073607;28;20040;-67
2023/05/06 02:55:27;;;;;;;15.05;7.20;;;;;;;8.42;87.42;96416.28;5073561;28;20487;-68
2023/05/06 02:57:56;;;;;;;11.35;7.72;;;;;;;8.41;87.55;96414.59;5073490;28;20048;-67
2023/05/06 03:00:29;;;;;;;14.68;7.05;;;;;;;8.38;87.65;96414.69;5073349;28;20044;-69
2023/05/06 03:03:11;;;;;;;9.10;7.60;;;;;;;8.27;87.94;96408.06;5073340;28;20049;-67
2023/05/06 03:05:40;;;;;;;9.77;7.65;;;;;;;8.33;89.94;96409.63;5073581;28;20044;-68
2023/05/06 03:08:12;;;;;;;11.10;8.38;;;;;;;8.39;89.88;96416.38;5073022;28;20087;-67
2023/05/06 03:10:49;;;;;;;11.93;8.68;;;;;;;8.46;92.15;96416.16;5073172;28;20059;-69
2023/05/06 03:13:23;;;;;;;12.02;7.82;;;;;;;8.61;92.51;96421.81;5073296;28;20486;-67
2023/05/06 03:15:59;;;;;;;10.50;8.13;;;;;;;8.64;91.62;96419.09;5073332;28;20040;-69
2023/05/06 03:18:34;;;;;;;12.55;7.78;;;;;;;8.66;91.28;96421.66;5073121;28;20055;-68
2023/05/06 03:21:13;;;;;;;11.20;7.68;;;;;;;8.70;90.84;96420.69;5073116;28;20405;-67
2023/05/06 03:23:48;;;;;;;10.88;7.75;;;;;;;8.76;90.65;96425.66;5073232;28;20048;-67
2023/05/06 03:26:21;;;;;;;10.27;7.18;;;;;;;8.76;90.30;96423.06;5073110;28;20071;-68
2023/05/06 03:28:54;;;;;;;11.63;8.93;;;;;;;8.83;89.97;96426.34;5073006;28;20048;-67
2023/05/06 03:31:34;;;;;;;14.40;7.97;;;;;;;8.91;89.91;96429.53;5073011;28;20402;-69
2023/05/06 03:34:07;;;;;;;14.77;8.35;;;;;;;8.94;89.90;96431.22;5073095;28;20091;-69
2023/05/06 03:36:36;;;;;;;12.13;8.25;;;;;;;9.03;90.56;96432.66;5073058;28;20052;-66
2023/05/06 03:39:07;;;;;;;10.77;7.45;;;;;;;9.13;90.16;96434.06;5072936;28;20052;-69
2023/05/06 03:41:40;;;;;;;10.35;7.35;;;;;;;9.18;88.88;96444.34;5072947;28;20048;-66
2023/05/06 03:44:07;;;;;;;12.93;7.95;;;;;;;9.20;88.94;96437.28;5072676;28;20056;-69
2023/05/06 03:46:34;;;;;;;14.05;8.13;;;;;;;9.29;90.02;96436.13;5072907;28;20106;-70
2023/05/06 03:49:01;;;;;;;12.48;8.35;;;;;;;9.55;89.69;96445.69;5072873;28;20048;-69
2023/05/06 03:51:30;;;;;;;11.25;7.93;;;;;;;9.93;88.63;96446.97;5072876;28;20136;-69
2023/05/06 03:53:58;;;;;;;11.23;6.57;;;;;;;10.47;87.41;96460.63;5072842;28;20051;-69
2023/05/06 03:56:26;;;;;;;8.98;6.45;;;;;;;11.08;84.44;96446.91;5072817;28;20048;-67
2023/05/06 03:58:54;;;;;;;8.05;6.30;;;;;;;11.67;82.39;96460.13;5075983;28;20067;-67
2023/05/06 04:01:21;;;;;;;9.25;5.57;;;;;;;12.22;77.97;96463.00;5076966;28;20070;-66
2023/05/06 04:03:48;;;;;;;7.95;4.85;;;;;;;12.61;75.16;96463.81;5076752;28;20554;-66
2023/05/06 04:06:15;;;;;;;9.02;5.32;;;;;;;12.98;72.47;96463.84;5076931;28;20055;-66
2023/05/06 04:08:44;;;;;;;10.45;5.13;;;;;;;13.28;71.02;96458.00;5076639;28;20113;-68
2023/05/06 04:11:12;;;;;;;9.07;5.90;;;;;;;13.61;68.76;96462.47;5076646;28;20456;-67
2023/05/06 04:13:39;;;;;;;7.25;5.32;;;;;;;13.80;67.57;96463.28;5076606;28;20059;-67
2023/05/06 04:16:06;;;;;;;6.45;5.20;;;;;;;14.03;66.99;96470.81;5076580;28;20044;-68
2023/05/06 04:18:34;;;;;;;9.32;4.65;;;;;;;14.45;66.04;96469.53;5076440;28;20080;-67
2023/05/06 04:21:02;;;;;;;5.70;4.97;;;;;;;14.90;64.37;96477.63;5076422;28;20044;-67
2023/05/06 04:23:29;;;;;;;7.07;4.70;;;;;;;15.23;62.58;96481.03;5076438;28;20151;-68
2023/05/06 04:25:58;;;;;;;10.52;4.30;;;;;;;15.52;62.27;96474.06;5076590;28;20076;-67
2023/05/06 04:28:26;;;;;;;6.03;4.47;;;;;;;16.02;61.61;96479.03;5076478;28;20052;-67
2023/05/06 04:30:53;;;;;;;7.32;5.00;;;;;;;16.25;58.22;96481.19;5076156;28;20560;-68
2023/05/06 04:33:21;;;;;;;8.48;4.38;;;;;;;16.58;58.04;96484.47;5076321;28;20053;-67
2023/05/06 04:35:53;;;;;;;9.05;4.30;;;;;;;16.84;56.82;96482.81;5076149;28;20048;-67
2023/05/06 04:38:20;;;;;;;7.20;4.85;;;;;;;16.91;56.00;96486.75;5076091;28;20139;-67
2023/05/06 04:40:48;;;;;;;6.72;4.05;;;;;;;17.13;55.40;96490.66;5076063;28;20071;-68
2023/05/06 04:43:17;;;;;;;6.95;4.72;;;;;;;17.27;55.15;96488.88;5075690;28;20044;-69
2023/05/06 04:45:48;;;;;;;5.20;4.32;;;;;;;17.24;53.14;96495.22;5074938;28;20306;-68
2023/05/06 04:48:17;;;;;;;7.72;4.60;;;;;;;17.38;52.88;96496.13;5074833;28;20056;-68
2023/05/06 04:50:45;;;;;;;5.00;4.20;;;;;;;17.40;54.26;96499.53;5074678;28;20395;-68
2023/05/06 04:53:13;;;;;;;8.13;4.60;;;;;;;17.51;54.42;96497.00;5074757;28;20044;-69
2023/05/06 04:55:41;;;;;;;6.32;4.65;;;;;;;17.81;52.96;96492.38;5074634;28;20056;-69
2023/05/06 04:58:08;;;;;;;6.75;4.55;;;;;;;18.10;53.92;96497.50;5074510;28;20044;-67
2023/05/06 05:00:37;;;;;;;8.30;4.28;;;;;;;18.42;53.44;96502.34;5074536;28;20045;-68
2023/05/06 05:03:04;;;;;;;6.53;4.22;;;;;;;18.57;52.13;96502.19;5074481;28;20060;-69
2023/05/06 05:05:33;;;;;;;10.45;4.90;;;;;;;18.47;50.34;96504.66;5074686;28;20072;-68
2023/05/06 05:08:00;;;;;;;6.97;4.38;;;;;;;18.58;51.60;96501.25;5074011;28;20453;-68
2023/05/06 05:10:27;;;;;;;5.43;4.40;;;;;;;18.82;48.59;96506.56;5074414;28;20057;-68
2023/05/06 05:12:54;;;;;;;7.93;4.13;;;;;;;18.77;49.45;96507.88;5074383;28;20149;-68
2023/05/06 05:15:25;;;;;;;6.82;4.50;;;;;;;18.79;49.11;96509.44;5074341;28;20075;-68
2023/05/06 05:17:55;;;;;;;10.48;4.03;;;;;;;19.01;50.38;96501.75;5074323;28;20048;-68
2023/05/06 05:20:23;;;;;;;6.40;4.35;;;;;;;19.37;48.90;96500.03;5074293;28;20067;-69
2023/05/06 05:22:51;;;;;;;7.20;4.50;;;;;;;19.68;50.55;96499.50;5074271;28;20375;-69
2023/05/06 05:25:19;;;;;;;5.15;4.05;;;;;;;19.93;46.99;96505.63;5074229;28;20052;-68
2023/05/06 05:27:46;;;;;;;6.13;4.18;;;;;;;20.06;47.37;96505.53;5074160;28;20048;-67
2023/05/06 05:30:14;;;;;;;8.15;4.03;;;;;;;20.23;45.23;96496.28;5073937;28;20502;-69
2023/05/06 05:32:45;;;;;;;5.97;4.10;;;;;;;20.33;45.85;96494.59;5074024;28;20080;-68
2023/05/06 05:35:14;;;;;;;4.82;3.38;;;;;;;20.46;45.97;96496.25;5074051;28;20044;-68
2023/05/06 05:37:42;;;;;;;6.82;4.00;;;;;;;20.11;46.11;96497.22;5073919;28;20074;-69
2023/05/06 05:40:11;;;;;;;8.45;3.65;;;;;;;20.08;45.38;96498.31;5074027;28;20131;-68
2023/05/06 05:42:39;;;;;;;4.00;3.50;;;;;;;19.65;45.97;96497.09;5073956;28;20045;-69
2023/05/06 05:45:10;;;;;;;5.40;3.80;;;;;;;19.21;46.38;96494.19;5007278;28;1920104;-68
2023/05/06 05:47:38;;;;;;;5.40;4.00;;;;;;;19.31;47.22;96500.47;5074883;28;20547;-68
2023/05/06 05:50:07;;;;;;;7.38;4.18;;;;;;;19.54;47.84;96492.63;5074767;28;20052;-68
2023/05/06 05:52:35;;;;;;;6.97;4.80;;;;;;;19.56;46.63;96496.84;5074749;28;20501;-68
2023/05/06 05:55:03;;;;;;;10.43;4.10;;;;;;;19.78;47.06;96497.03;5074812;28;20063;-68
2023/05/06 05:57:30;;;;;;;4.80;3.60;;;;;;;19.52;46.18;96491.88;5074642;28;20048;-69
2023/05/06 05:59:57;;;;;;;8.68;3.88;;;;;;;19.14;45.77;96488.50;5074488;28;20059;-69
2023/05/06 06:02:24;;;;;;;5.15;3.67;;;;;;;19.33;46.36;96490.63;5074507;28;20080;-68
2023/05/06 06:04:52;;;;;;;6.15;3.50;;;;;;;19.32;46.31;96496.88;5074494;28;20047;-68
2023/05/06 06:07:20;;;;;;;5.55;3.20;;;;;;;19.59;45.78;96492.28;5074546;28;20049;-69
2023/05/06 06:09:49;;;;;;;6.55;3.30;;;;;;;19.67;45.28;96488.06;5074313;28;20052;-69
2023/05/06 06:12:16;;;;;;;6.47;3.63;;;;;;;19.41;45.78;96482.06;5074356;28;20053;-68
2023/05/06 06:14:46;;;;;;;5.95;3.33;;;;;;;19.52;45.32;96483.91;5074233;28;20123;-69
2023/05/06 06:17:14;;;;;;;7.18;3.30;;;;;;;19.86;44.54;96473.38;5074290;28;20106;-68
2023/05/06 06:19:42;;;;;;;3.88;3.05;;;;;;;19.88;44.73;96487.41;5073696;28;20102;-69
2023/05/06 06:22:09;;;;;;;5.68;3.00;;;;;;;19.74;43.00;96479.66;5074032;28;20127;-69
2023/05/06 06:24:36;;;;;;;4.65;3.25;;;;;;;19.93;43.11;96479.09;5074311;28;20479;-69
2023/05/06 06:27:07;;;;;;;6.50;3.42;;;;;;;19.85;42.95;96473.50;5074105;28;20483;-68
2023/05/06 06:29:34;;;;;;;;;;;;;;;19.82;42.68;96470.13;5074453;28;20041;-68
2023/05/06 06:32:03;;;;;;;6.05;3.20;;;;;;;19.88;43.19;96494.50;5074118;28;19927;-68
2023/05/06 06:34:31;;;;;;;6.13;3.30;;;;;;;20.07;43.08;96489.50;5073914;28;20048;-69
2023/05/06 06:36:59;;;;;;;4.43;3.35;;;;;;;19.93;42.35;96476.44;5073844;28;20055;-69
2023/05/06 06:39:27;;;;;;;4.47;3.03;;;;;;;19.69;43.46;96493.25;5073906;28;20047;-69
2023/05/06 06:41:57;;;;;;;5.85;2.95;;;;;;;19.46;44.60;96493.19;5073908;28;20053;-68
2023/05/06 06:44:28;;;;;;;4.85;3.00;;;;;;;19.88;43.14;96476.78;5073593;28;20049;-69
2023/05/06 06:46:56;;;;;;;7.35;3.08;;;;;;;19.77;43.62;96490.00;5073760;28;20119;-68
2023/05/06 06:49:24;;;;;;;5.75;2.83;;;;;;;19.81;44.70;96505.56;5073551;28;20048;-69
2023/05/06 06:51:52;;;;;;;4.53;2.92;;;;;;;19.82;42.08;96488.72;5073480;28;20045;-69
2023/05/06 06:54:19;;;;;;;7.88;3.13;;;;;;;19.97;42.80;96488.50;5073571;28;20127;-69
2023/05/06 06:56:47;;;;;;;4.57;3.00;;;;;;;20.18;41.56;96491.31;5073460;28;20133;-69
2023/05/06 06:59:15;;;;;;;6.68;2.90;;;;;;;20.60;42.12;96496.97;5073550;28;20044;-69
2023/05/06 07:01:44;;;;;;;6.10;2.67;;;;;;;20.79;41.90;96499.84;5073547;28;20059;-69
2023/05/06 07:04:12;;;;;;;3.70;3.05;;;;;;;21.07;40.06;96507.44;5073480;28;20041;-69
2023/05/06 07:06:40;;;;;;;4.32;2.47;;;;;;;20.87;40.98;96509.03;5073358;28;20136;-69
2023/05/06 07:09:08;;;;;;;5.45;2.72;;;;;;;20.64;41.33;96507.25;5073273;28;20482;-69
2023/05/06 07:11:36;;;;;;;9.35;2.90;;;;;;;20.80;41.70;96500.72;5073209;28;20084;-69
2023/05/06 07:14:04;;;;;;;3.13;2.38;;;;;;;20.93;40.79;96506.75;5073236;28;20105;-69
2023/05/06 07:16:33;;;;;;;7.78;2.80;;;;;;;20.66;41.54;96515.94;5073231;28;20127;-69
2023/05/06 07:19:02;;;;;;;5.43;2.75;;;;;;;20.61;41.88;96501.31;5073164;28;20048;-69
2023/05/06 07:21:31;;;;;;;4.07;2.78;;;;;;;20.76;41.15;96512.53;5073078;28;20131;-69
2023/05/06 07:23:58;;;;;;;3.53;2.60;;;;;;;20.73;42.76;96512.78;5073101;28;20124;-69
2023/05/06 07:26:26;;;;;;;5.53;3.22;;;;;;;20.51;41.01;96510.03;5073139;28;20048;-68
2023/05/06 07:28:54;;;;;;;5.05;2.97;;;;;;;20.51;40.82;96509.19;5073079;28;20051;-67
2023/05/06 07:31:21;;;;;;;10.00;2.75;;;;;;;20.35;41.79;96520.19;5072749;28;20052;-67
2023/05/06 07:33:48;;;;;;;5.22;3.00;;;;;;;20.34;41.75;96516.66;5072980;28;20175;-68
2023/05/06 07:36:17;;;;;;;13.77;3.00;;;;;;;20.33;42.09;96513.19;5073079;28;20041;-68
2023/05/06 07:38:44;;;;;;;4.28;3.28;;;;;;;20.30;41.79;96521.38;5072981;28;20052;-69
2023/05/06 07:41:12;;;;;;;5.03;3.08;;;;;;;20.70;43.64;96516.53;5073026;28;20513;-69
2023/05/06 07:43:39;;;;;;;3.20;2.35;;;;;;;20.75;41.30;96525.00;5072667;28;20057;-68
2023/05/06 07:46:07;;;;;;;2.70;2.50;;;;;;;20.19;40.99;96535.50;5072925;28;20044;-68
2023/05/06 07:48:34;;;;;;;6.68;2.72;;;;;;;20.12;41.62;96521.00;5072897;28;20094;-68
2023/05/06 07:51:01;;;;;;;5.43;2.58;;;;;;;20.12;41.69;96536.94;5072830;28;20049;-68
2023/05/06 07:53:30;;;;;;;4.35;2.63;;;;;;;20.06;42.38;96517.03;5072892;28;20044;-68
2023/05/06 07:56:00;;;;;;;9.02;2.40;;;;;;;20.32;42.48;96526.56;5072736;28;20048;-67
2023/05/06 07:58:28;;;;;;;9.35;2.88;;;;;;;20.58;43.24;96528.97;5072924;28;20048;-68
2023/05/06 08:00:55;;;;;;;7.63;3.03;;;;;;;20.70;41.91;96535.97;5072789;28;20051;-68
2023/05/06 08:03:22;;;;;;;3.55;3.08;;;;;;;20.46;41.38;96530.78;5072816;28;20049;-67
2023/05/06 08:05:50;;;;;;;4.63;2.90;;;;;;;20.53;40.94;96536.47;5072629;28;20127;-68
2023/05/06 08:08:18;;;;;;;4.50;2.78;;;;;;;20.48;41.02;96528.88;5072777;28;20494;-68
2023/05/06 08:10:47;;;;;;;3.45;2.65;;;;;;;20.83;41.19;96521.72;5072647;28;20052;-67
2023/05/06 08:13:14;;;;;;;3.45;2.72;;;;;;;20.69;41.48;96525.47;5072716;28;20048;-66
2023/05/06 08:15:41;;;;;;;4.28;2.53;;;;;;;20.92;42.22;96526.31;5072642;28;20070;-67
2023/05/06 08:18:08;;;;;;;7.32;2.70;;;;;;;21.00;39.10;96546.13;5072539;28;20048;-66
2023/05/06 08:20:36;;;;;;;5.38;2.60;;;;;;;20.54;40.21;96533.72;5072566;28;20079;-67
2023/05/06 08:23:04;;;;;;;7.55;3.20;;;;;;;20.45;42.17;96545.03;5072636;28;20482;-67
2023/05/06 08:25:31;;;;;;;6.53;2.78;;;;;;;20.20;41.34;96534.53;5072496;28;20123;-67
2023/05/06 08:28:01;;;;;;;4.65;2.80;;;;;;;20.06;41.78;96535.59;5072499;28;20060;-68
2023/05/06 08:30:28;;;;;;;4.78;2.80;;;;;;;19.95;42.16;96544.34;5072439;28;20494;-67
2023/05/06 08:32:57;;;;;;;6.13;2.60;;;;;;;20.11;43.53;96551.19;5072250;28;20048;-66
2023/05/06 08:35:24;;;;;;;4.38;2.70;;;;;;;20.17;42.53;96541.88;5071892;28;20077;-67
2023/05/06 08:37:52;;;;;;;9.40;3.53;;;;;;;20.59;42.64;96536.00;5072447;28;20102;-68
2023/05/06 08:40:24;;;;;;;5.38;3.15;;;;;;;20.74;40.54;96538.41;5072450;28;20076;-67
2023/05/06 08:42:56;;;;;;;3.97;2.70;;;;;;;20.27;41.30;96536.69;5072419;28;20048;-66
2023/05/06 08:45:25;;;;;;;4.93;2.70;;;;;;;20.47;41.57;96527.19;5075842;28;20135;-67
2023/05/06 08:47:53;;;;;;;3.28;2.65;;;;;;;20.60;40.50;96548.31;5075990;28;20478;-68
2023/05/06 08:50:21;;;;;;;6.55;3.00;;;;;;;20.52;40.86;96540.94;5075893;28;20106;-67
2023/05/06 08:52:49;;;;;;;2.90;2.35;;;;;;;20.45;41.16;96543.25;5075903;28;20123;-68
2023/05/06 08:55:19;;;;;;;6.40;3.05;;;;;;;20.82;42.22;96534.16;5075788;28;20037;-67
2023/05/06 08:57:49;;;;;;;5.28;3.03;;;;;;;21.29;41.35;96541.09;5075738;28;20045;-66
2023/05/06 09:00:16;;;;;;;5.50;2.85;;;;;;;21.62;41.10;96545.56;5075755;28;20044;-67
2023/05/06 09:02:45;;;;;;;4.63;2.60;;;;;;;21.64;39.46;96544.47;5075748;28;20473;-67
2023/05/06 09:05:12;;;;;;;4.38;2.95;;;;;;;21.39;39.18;96557.16;5075738;28;20049;-67
2023/05/06 09:07:42;;;;;;;8.82;3.13;;;;;;;21.38;41.25;96555.47;5075632;28;20083;-68
2023/05/06 09:10:13;;;;;;;4.65;2.40;;;;;;;21.36;39.79;96561.84;5075628;28;20474;-67
2023/05/06 09:12:41;;;;;;;5.88;2.60;;;;;;;20.90;40.47;96556.66;5075698;28;20049;-68
2023/05/06 09:15:10;;;;;;;9.85;2.97;;;;;;;20.72;41.76;96546.50;5075686;28;20139;-69
2023/05/06 09:17:38;;;;;;;5.28;2.78;;;;;;;20.67;41.60;96548.66;5075534;28;20044;-67
2023/05/06 09:20:11;;;;;;;3.22;2.58;;;;;;;21.06;42.51;96540.31;5075373;28;20457;-69
2023/05/06 09:22:40;;;;;;;4.00;2.70;;;;;;;21.32;39.68;96563.94;5075408;28;20052;-67
2023/05/06 09:25:08;;;;;;;5.97;3.42;;;;;;;20.92;39.20;96547.56;5075405;28;20070;-67
2023/05/06 09:27:36;;;;;;;9.07;3.05;;;;;;;20.86;39.40;96541.88;5075351;28;20063;-68
2023/05/06 09:30:05;;;;;;;6.47;2.95;;;;;;;20.69;39.79;96552.91;5075235;28;20048;-68
2023/05/06 09:32:33;;;;;;;4.25;3.13;;;;;;;20.66;40.93;96542.53;5075106;28;20147;-68
2023/05/06 09:35:01;;;;;;;10.75;3.00;;;;;;;21.01;40.29;96534.53;5075287;28;20447;-67
2023/05/06 09:37:30;;;;;;;6.07;2.80;;;;;;;21.46;41.47;96544.16;5075295;28;20052;-67
2023/05/06 09:39:59;;;;;;;4.72;2.88;;;;;;;20.99;39.42;96547.94;5075141;28;20456;-66
2023/05/06 09:42:28;;;;;;;6.47;3.47;;;;;;;20.89;41.58;96531.03;5075120;28;20084;-67
2023/05/06 09:44:57;;;;;;;4.53;3.42;;;;;;;21.10;40.88;96549.72;5074855;28;20084;-67
2023/05/06 09:47:26;;;;;;;4.47;3.00;;;;;;;21.48;42.77;96542.25;5074749;28;20454;-68
2023/05/06 09:49:58;;;;;;;4.38;2.85;;;;;;;21.18;40.77;96543.78;5074836;28;20045;-66
2023/05/06 09:52:28;;;;;;;3.75;2.67;;;;;;;21.11;40.75;96537.28;5074763;28;20509;-68
2023/05/06 09:54:58;;;;;;;7.85;3.28;;;;;;;21.11;39.66;96545.25;5073555;28;20049;-67
2023/05/06 09:57:29;;;;;;;7.50;3.20;;;;;;;20.52;41.28;96554.22;5074791;28;20460;-67
2023/05/06 09:59:58;;;;;;;3.67;3.30;;;;;;;20.12;42.60;96550.22;5074594;28;20044;-66
2023/05/06 10:02:27;;;;;;;6.32;3.10;;;;;;;20.12;41.72;96539.59;5074577;28;20055;-67
2023/05/06 10:04:57;;;;;;;6.40;3.17;;;;;;;20.17;43.64;96553.34;5074552;28;20056;-67
2023/05/06 10:07:27;;;;;;;7.25;2.95;;;;;;;19.94;42.25;96547.13;5074482;28;20402;-68
2023/05/06 10:09:58;;;;;;;5.85;3.30;;;;;;;19.69;41.98;96539.19;5074481;28;20651;-68
2023/05/06 10:12:26;;;;;;;7.35;2.95;;;;;;;19.53;43.29;96534.19;5074387;28;20139;-66
2023/05/06 10:14:53;;;;;;;6.88;3.60;;;;;;;19.63;42.79;96539.66;5074303;28;20048;-68
2023/05/06 10:17:25;;;;;;;4.72;3.08;;;;;;;19.89;44.31;96536.84;5074360;28;20485;-67
2023/05/06 10:19:58;;;;;;;8.07;3.35;;;;;;;19.92;44.26;96549.03;5074291;28;20048;-67
2023/05/06 10:22:49;;;;;;;4.70;3.13;;;;;;;19.55;43.00;96542.91;5074167;28;20520;-67
2023/05/06 10:25:28;;;;;;;7.40;3.45;;;;;;;19.44;43.19;96535.75;5074054;28;20456;-67
2023/05/06 10:27:58;;;;;;;4.85;3.47;;;;;;;19.23;43.63;96554.06;5074160;28;20051;-67
2023/05/06 10:30:27;;;;;;;2.97;2.70;;;;;;;19.13;43.63;96538.00;5074082;28;20051;-67
2023/05/06 10:32:59;;;;;;;6.07;3.33;;;;;;;19.30;45.93;96527.97;5074015;28;20133;-67
2023/05/06 10:35:44;;;;;;;5.80;2.95;;;;;;;19.39;43.45;96526.44;5073952;28;20063;-67
2023/05/06 10:38:16;;;;;;;5.65;2.70;;;;;;;19.51;42.29;96529.97;5073757;28;20058;-67
2023/05/06 10:40:47;;;;;;;3.90;2.88;;;;;;;19.56;43.58;96530.47;5073749;28;20417;-67
2023/05/06 10:43:22;;;;;;;4.90;2.42;;;;;;;19.53;43.80;96534.19;5073615;28;20053;-68
2023/05/06 10:46:06;;;;;;;6.93;2.90;;;;;;;19.71;43.76;96531.13;5073758;28;20056;-66
2023/05/06 10:48:34;;;;;;;5.93;2.55;;;;;;;20.01;42.46;96531.59;5072823;28;20091;-66
2023/05/06 10:51:23;;;;;;;6.72;2.88;;;;;;;20.12;42.59;96510.38;5073530;28;20048;-64
2023/05/06 10:54:01;;;;;;;8.13;2.70;;;;;;;20.26;40.64;96517.25;5073587;28;20047;-66
2023/05/06 10:56:31;;;;;;;11.48;2.80;;;;;;;20.53;42.52;96520.53;5073640;28;20048;-68
2023/05/06 10:59:10;;;;;;;5.50;2.58;;;;;;;21.04;41.15;96527.13;5073406;28;20438;-67
2023/05/06 11:01:38;;;;;;;7.00;2.90;;;;;;;21.34;41.57;96528.25;5073509;28;20052;-68
2023/05/06 11:04:12;;;;;;;7.75;3.08;;;;;;;21.41;38.75;96536.59;5073574;28;20044;-68
2023/05/06 11:06:41;;;;;;;3.35;2.40;;;;;;;21.12;39.55;96539.81;5073275;28;20045;-66
2023/05/06 11:09:17;;;;;;;4.25;2.90;;;;;;;21.11;41.49;96532.81;5073572;28;20127;-67
2023/05/06 11:11:52;;;;;;;10.40;3.22;;;;;;;21.43;40.47;96528.50;5073313;28;20052;-67
2023/05/06 11:14:30;;;;;;;5.78;3.00;;;;;;;21.83;40.90;96538.47;5073306;28;20048;-67
2023/05/06 11:17:00;;;;;;;10.52;3.20;;;;;;;21.54;39.54;96533.75;5073375;28;20051;-67
2023/05/06 11:19:29;;;;;;;8.43;2.43;;;;;;;21.20;39.68;96545.34;5073280;28;20048;-67
2023/05/06 11:22:02;;;;;;;3.92;2.60;;;;;;;20.66;40.61;96536.34;5073465;28;20445;-67
2023/05/06 11:24:31;;;;;;;3.80;2.80;;;;;;;20.12;40.58;96530.78;5072520;28;20057;-67
2023/05/06 11:27:00;;;;;;;4.35;2.78;;;;;;;20.02;43.50;96539.44;5073121;28;20151;-66
2023/05/06 11:29:29;;;;;;;6.95;2.95;;;;;;;19.91;42.72;96539.38;5073155;28;20048;-67
2023/05/06 11:31:56;;;;;;;5.53;2.85;;;;;;;19.51;43.47;96538.75;5073083;28;20052;-67
2023/05/06 11:34:26;;;;;;;4.05;3.10;;;;;;;19.53;43.81;96536.84;5073054;28;20045;-67
2023/05/06 11:36:57;;;;;;;6.18;2.75;;;;;;;19.42;43.79;96547.44;5073394;28;20063;-67
2023/05/06 11:39:29;;;;;;;6.15;3.00;;;;;;;19.16;44.61;96550.19;5073078;28;20457;-68
2023/05/06 11:41:58;;;;;;;5.32;3.20;;;;;;;19.13;45.55;96543.31;5073005;28;20494;-68
2023/05/06 11:44:30;;;;;;;5.43;2.70;;;;;;;18.98;44.77;96537.28;5072824;28;20052;-66